Terminal Aerodrome Forecast
Issued by NWS Lubbock, TX

Home | Current Version | Previous Version | Text Only | Print | Product List | Glossary On
Versions: 1 2 3 4 5 6 7 8 9 10 11 12 13 14 15 16 17 18 19 20 21 22 23 24 25 26 27 28 29 30
000
FTUS44 KLUB 220817 AAA
TAFLBB
TAF AMD
KLBB 220817Z 2208/2306 08008KT 2SM -RA OVC004
      TEMPO 2208/2210 P6SM SCT004
     FM221600 14010KT 4SM BR OVC006
     FM222000 15009KT P6SM OVC008=

USA.gov is the U.S. government's official web portal to all federal, state and local government web resources and services.